Time,TemperatureF,DewpointF,PressureIn,WindDirection,WindDirectionDegrees,WindSpeedMPH,WindSpeedGustMPH,Humidity,HourlyPrecipIn,Conditions,Clouds,dailyrainin,SoftwareType,DateUTC
2013-10-31 00:13:00,35.0,29.0,29.75,West,268,4.0,8.0,77,0.00,,,0.16,,2013-10-31 05:13:00,
2013-10-31 00:23:00,35.0,29.0,29.74,WSW,248,4.0,8.0,77,0.00,,,0.16,,2013-10-31 05:23:00,
2013-10-31 00:43:00,35.0,28.0,29.73,West,275,1.0,5.0,76,0.00,,,0.16,,2013-10-31 05:43:00,
2013-10-31 00:52:00,35.0,28.0,29.72,WSW,255,1.0,4.0,76,0.00,,,0.16,,2013-10-31 05:52:00,
2013-10-31 01:12:00,35.0,28.0,29.72,WSW,255,0.0,2.0,76,0.00,,,0.16,,2013-10-31 06:12:00,
2013-10-31 01:22:00,35.0,28.0,29.72,WSW,255,0.0,2.0,76,0.00,,,0.16,,2013-10-31 06:22:00,
2013-10-31 01:42:00,35.0,28.0,29.71,WSW,255,0.0,1.0,76,0.00,,,0.16,,2013-10-31 06:42:00,
2013-10-31 01:53:00,35.0,28.0,29.71,WSW,255,0.0,1.0,76,0.00,,,0.16,,2013-10-31 06:53:00,
2013-10-31 02:11:00,35.0,28.0,29.71,WSW,255,1.0,3.0,76,0.00,,,0.16,,2013-10-31 07:11:00,
2013-10-31 02:21:00,35.0,28.0,29.70,WSW,255,0.0,3.0,75,0.00,,,0.16,,2013-10-31 07:21:00,
2013-10-31 02:42:00,35.0,28.0,29.69,WSW,255,2.0,5.0,75,0.00,,,0.16,,2013-10-31 07:42:00,
2013-10-31 02:52:00,35.0,28.0,29.69,WSW,254,2.0,4.0,75,0.00,,,0.16,,2013-10-31 07:52:00,
2013-10-31 03:12:00,35.0,28.0,29.68,West,263,1.0,5.0,74,0.00,,,0.16,,2013-10-31 08:12:00,
2013-10-31 03:22:00,35.0,27.0,29.68,West,261,4.0,8.0,73,0.00,,,0.16,,2013-10-31 08:22:00,
2013-10-31 03:42:00,35.0,27.0,29.67,WSW,250,4.0,8.0,73,0.00,,,0.16,,2013-10-31 08:42:00,
2013-10-31 03:52:00,35.0,27.0,29.67,WSW,238,4.0,7.0,73,0.00,,,0.16,,2013-10-31 08:52:00,
2013-10-31 04:11:00,35.0,27.0,29.66,NW,304,4.0,11.0,72,0.00,,,0.16,,2013-10-31 09:11:00,
2013-10-31 04:22:00,35.0,27.0,29.66,West,276,1.0,5.0,73,0.00,,,0.16,,2013-10-31 09:22:00,
2013-10-31 04:43:00,35.0,27.0,29.65,West,273,2.0,6.0,73,0.00,,,0.16,,2013-10-31 09:43:00,
2013-10-31 04:53:00,35.0,27.0,29.65,West,272,2.0,5.0,73,0.00,,,0.15,,2013-10-31 09:53:00,
2013-10-31 05:13:00,35.0,27.0,29.64,WSW,257,2.0,4.0,73,0.00,,,0.15,,2013-10-31 10:13:00,
2013-10-31 05:42:00,35.0,27.0,29.63,West,271,2.0,6.0,73,0.00,,,0.15,,2013-10-31 10:42:00,
2013-10-31 05:53:00,35.0,27.0,29.61,WSW,250,4.0,7.0,73,0.00,,,0.15,,2013-10-31 10:53:00,
2013-10-31 06:12:00,35.0,27.0,29.61,WSW,253,2.0,6.0,73,0.00,,,0.15,,2013-10-31 11:12:00,
2013-10-31 06:21:00,35.0,27.0,29.61,WSW,251,2.0,5.0,73,0.00,,,0.15,,2013-10-31 11:21:00,
2013-10-31 06:42:00,35.0,28.0,29.61,WSW,256,1.0,3.0,74,0.00,,,0.15,,2013-10-31 11:42:00,
2013-10-31 06:52:00,35.0,28.0,29.60,WSW,256,3.0,8.0,74,0.00,,,0.15,,2013-10-31 11:52:00,
2013-10-31 07:12:00,35.0,28.0,29.60,West,259,2.0,5.0,74,0.00,,,0.15,,2013-10-31 12:12:00,
2013-10-31 07:21:00,36.0,29.0,29.60,WSW,244,3.0,6.0,74,0.00,,,0.15,,2013-10-31 12:21:00,
2013-10-31 07:42:00,36.0,29.0,29.61,WSW,243,1.0,3.0,74,0.00,,,0.15,,2013-10-31 12:42:00,
2013-10-31 07:52:00,36.0,28.0,29.61,WSW,243,4.0,9.0,73,0.00,,,0.14,,2013-10-31 12:52:00,
2013-10-31 08:11:00,36.0,28.0,29.61,SW,234,3.0,6.0,73,0.00,,,0.14,,2013-10-31 13:11:00,
2013-10-31 08:22:00,36.0,28.0,29.61,WSW,247,3.0,6.0,73,0.00,,,0.14,,2013-10-31 13:22:00,
2013-10-31 08:42:00,36.0,28.0,29.61,WSW,247,3.0,6.0,73,0.00,,,0.14,,2013-10-31 13:42:00,
2013-10-31 08:52:00,36.0,28.0,29.60,WSW,242,4.0,8.0,73,0.00,,,0.14,,2013-10-31 13:52:00,
2013-10-31 09:11:00,36.0,28.0,29.60,WSW,252,4.0,8.0,73,0.00,,,0.14,,2013-10-31 14:11:00,
2013-10-31 09:21:00,36.0,28.0,29.61,WSW,245,6.0,10.0,72,0.00,,,0.14,,2013-10-31 14:21:00,
2013-10-31 09:42:00,36.0,28.0,29.60,West,261,4.0,8.0,72,0.00,,,0.14,,2013-10-31 14:42:00,
2013-10-31 09:52:00,36.0,28.0,29.59,West,264,6.0,9.0,72,0.00,,,0.14,,2013-10-31 14:52:00,
2013-10-31 10:11:00,37.0,29.0,29.59,WSW,240,6.0,11.0,72,0.00,,,0.13,,2013-10-31 15:11:00,
2013-10-31 11:23:00,39.0,30.0,29.56,West,268,5.0,11.0,69,0.00,,,0.12,,2013-10-31 16:23:00,
2013-10-31 11:53:00,39.0,29.0,29.55,West,264,5.0,10.0,67,0.00,,,0.12,,2013-10-31 16:53:00,
2013-10-31 12:12:00,39.0,29.0,29.54,West,262,5.0,10.0,66,0.00,,,0.10,,2013-10-31 17:12:00,
2013-10-31 12:22:00,40.0,30.0,29.54,West,276,5.0,11.0,66,0.00,,,0.10,,2013-10-31 17:22:00,
2013-10-31 12:43:00,40.0,30.0,29.54,WSW,257,5.0,8.0,66,0.00,,,0.10,,2013-10-31 17:43:00,
2013-10-31 12:52:00,40.0,29.0,29.53,West,267,4.0,9.0,65,0.00,,,0.10,,2013-10-31 17:52:00,
2013-10-31 13:12:00,41.0,30.0,29.53,WSW,250,4.0,9.0,64,0.00,,,0.08,,2013-10-31 18:12:00,
2013-10-31 13:22:00,41.0,30.0,29.53,WSW,250,4.0,9.0,64,0.00,,,0.08,,2013-10-31 18:22:00,
2013-10-31 13:42:00,41.0,29.0,29.52,WNW,284,4.0,10.0,62,0.00,,,0.08,,2013-10-31 18:42:00,
2013-10-31 13:52:00,41.0,29.0,29.51,WSW,246,5.0,9.0,62,0.00,,,0.08,,2013-10-31 18:52:00,
2013-10-31 14:21:00,41.0,29.0,29.50,West,270,3.0,8.0,62,0.00,,,0.06,,2013-10-31 19:21:00,
2013-10-31 14:32:00,41.0,29.0,29.50,West,270,3.0,8.0,62,0.00,,,0.06,,2013-10-31 19:32:00,
2013-10-31 14:52:00,42.0,30.0,29.49,West,270,4.0,8.0,61,0.00,,,0.06,,2013-10-31 19:52:00,
2013-10-31 15:22:00,42.0,30.0,29.48,WSW,251,5.0,10.0,61,0.00,,,0.04,,2013-10-31 20:22:00,
2013-10-31 15:42:00,41.0,29.0,29.48,WSW,244,4.0,10.0,63,0.00,,,0.04,,2013-10-31 20:42:00,
2013-10-31 15:52:00,41.0,29.0,29.47,WSW,250,4.0,8.0,63,0.00,,,0.04,,2013-10-31 20:52:00,
2013-10-31 16:11:00,42.0,30.0,29.47,WSW,257,4.0,9.0,62,0.00,,,0.02,,2013-10-31 21:11:00,
2013-10-31 16:22:00,42.0,30.0,29.47,SW,231,3.0,7.0,62,0.00,,,0.02,,2013-10-31 21:22:00,
2013-10-31 16:44:00,41.0,29.0,29.47,WSW,252,2.0,7.0,63,0.00,,,0.02,,2013-10-31 21:44:00,
2013-10-31 16:54:00,41.0,29.0,29.47,WSW,257,3.0,5.0,63,0.00,,,0.02,,2013-10-31 21:54:00,
2013-10-31 17:13:00,41.0,30.0,29.47,WSW,249,4.0,6.0,64,0.00,,,0.01,,2013-10-31 22:13:00,
2013-10-31 17:24:00,41.0,30.0,29.47,West,276,3.0,5.0,64,0.00,,,0.01,,2013-10-31 22:24:00,
2013-10-31 17:43:00,41.0,30.0,29.47,WSW,250,2.0,5.0,64,0.00,,,0.01,,2013-10-31 22:43:00,
2013-10-31 17:53:00,41.0,30.0,29.47,West,276,2.0,4.0,65,0.00,,,0.01,,2013-10-31 22:53:00,
2013-10-31 18:22:00,41.0,30.0,29.48,WSW,250,3.0,6.0,65,0.00,,,0.00,,2013-10-31 23:22:00,
2013-10-31 18:53:00,40.0,30.0,29.48,WNW,283,2.0,7.0,67,0.00,,,0.00,,2013-10-31 23:53:00,
2013-10-31 19:11:00,40.0,30.0,29.48,West,281,1.0,4.0,67,0.00,,,0.00,,2013-11-01 00:11:00,
2013-10-31 19:21:00,40.0,30.0,29.49,West,275,0.0,3.0,67,0.00,,,0.00,,2013-11-01 00:21:00,
2013-10-31 19:42:00,40.0,30.0,29.49,WNW,285,0.0,2.0,67,0.00,,,0.00,,2013-11-01 00:42:00,
2013-10-31 19:52:00,40.0,30.0,29.49,WNW,285,1.0,3.0,68,0.00,,,0.00,,2013-11-01 00:52:00,
2013-10-31 20:12:00,39.0,30.0,29.49,West,263,0.0,3.0,69,0.00,,,0.00,,2013-11-01 01:12:00,
2013-10-31 20:22:00,39.0,30.0,29.49,West,263,0.0,2.0,69,0.00,,,0.00,,2013-11-01 01:22:00,
2013-10-31 20:42:00,39.0,30.0,29.49,West,262,1.0,2.0,69,0.00,,,0.00,,2013-11-01 01:42:00,
2013-10-31 20:52:00,39.0,30.0,29.49,WNW,286,0.0,3.0,69,0.00,,,0.00,,2013-11-01 01:52:00,
2013-10-31 21:22:00,39.0,30.0,29.50,West,265,1.0,5.0,69,0.00,,,0.00,,2013-11-01 02:22:00,
2013-10-31 21:42:00,39.0,30.0,29.49,WSW,257,1.0,3.0,69,0.00,,,0.00,,2013-11-01 02:42:00,
2013-10-31 21:52:00,39.0,30.0,29.50,West,263,1.0,4.0,69,0.00,,,0.00,,2013-11-01 02:52:00,
2013-10-31 22:12:00,39.0,30.0,29.50,WSW,257,1.0,4.0,70,0.00,,,0.00,,2013-11-01 03:12:00,
2013-10-31 22:22:00,39.0,30.0,29.50,WSW,257,1.0,3.0,69,0.00,,,0.00,,2013-11-01 03:22:00,
2013-10-31 22:45:00,38.0,29.0,29.51,WSW,257,1.0,3.0,70,0.00,,,0.00,,2013-11-01 03:45:00,
2013-10-31 22:54:00,38.0,29.0,29.51,WSW,256,2.0,4.0,70,0.00,,,0.00,,2013-11-01 03:54:00,
2013-10-31 23:14:00,38.0,29.0,29.51,WSW,250,2.0,4.0,70,0.00,,,0.00,,2013-11-01 04:14:00,
2013-10-31 23:24:00,37.0,28.0,29.52,WSW,244,3.0,5.0,70,0.00,,,0.00,,2013-11-01 04:24:00,
2013-10-31 23:54:00,38.0,28.0,29.52,WNW,286,3.0,8.0,66,0.00,,,0.00,,2013-11-01 04:54:00,